Time;durP1;ratioP1;P1;durP2;ratioP2;P2;SDS_P1;SDS_P2;PMS_P1;PMS_P2;Temp;Humidity;BMP_temperature;BMP_pressure;BME280_temperature;BME280_humidity;BME280_pressure;Samples;Min_cycle;Max_cycle;Signal;HPM_P1;HPM_P2
2022/04/25 00:00:05;;;;;;;;;;;;;;;;;;5037566;28;20264;-24
2022/04/25 00:02:31;;;;;;;;;;;;;;;;;;5037409;28;19925;-23
2022/04/25 00:04:57;;;;;;;;;;;;;;;;;;5037287;28;19929;-23
2022/04/25 00:07:23;;;;;;;;;;;;;;;;;;5037414;28;19917;-22
2022/04/25 00:09:49;;;;;;;;;;;;;;;;;;5037389;28;19909;-22
2022/04/25 00:12:15;;;;;;;;;;;;;;;;;;5037199;28;20375;-24
2022/04/25 00:14:41;;;;;;;;;;;;;;;;;;5036751;28;19921;-24
2022/04/25 00:17:07;;;;;;;;;;;;;;;;;;5037214;28;19913;-22
2022/04/25 00:19:33;;;;;;;;;;;;;;;;;;5037446;28;19931;-22
2022/04/25 00:21:59;;;;;;;;;;;;;;;;;;5019625;28;19914;-22
2022/04/25 00:24:25;;;;;;;;;;;;;;;;;;5036997;28;20374;-23
2022/04/25 00:26:51;;;;;;;;;;;;;;;;;;5037298;28;20299;-22
2022/04/25 00:29:17;;;;;;;;;;;;;;;;;;5037533;28;19913;-22
2022/04/25 00:31:43;;;;;;;;;;;;;;;;;;5036983;28;20400;-22
2022/04/25 00:34:09;;;;;;;;;;;;;;;;;;5037083;28;19917;-26
2022/04/25 00:36:35;;;;;;;;;;;;;;;;;;5036921;28;20335;-21
2022/04/25 00:39:01;;;;;;;;;;;;;;;;;;5019346;28;19917;-22
2022/04/25 00:41:27;;;;;;;;;;;;;;;;;;5037353;28;20320;-22
2022/04/25 00:43:53;;;;;;;;;;;;;;;;;;5036655;28;19913;-22
2022/04/25 00:46:19;;;;;;;;;;;;;;;;;;5036636;28;19979;-22
2022/04/25 00:48:45;;;;;;;;;;;;;;;;;;5037186;28;20375;-23
2022/04/25 00:51:11;;;;;;;;;;;;;;;;;;5036573;28;19913;-22
2022/04/25 00:53:37;;;;;;;;;;;;;;;;;;5036448;28;20344;-22
2022/04/25 00:56:03;;;;;;;;;;;;;;;;;;5036743;28;19920;-23
2022/04/25 00:58:29;;;;;;;;;;;;;;;;;;5036466;28;19909;-23
2022/04/25 01:00:55;;;;;;;;;;;;;;;;;;5036710;28;19940;-22
2022/04/25 01:03:21;;;;;;;;;;;;;;;;;;5036292;28;19914;-22
2022/04/25 01:05:47;;;;;;;;;;;;;;;;;;5036036;28;19922;-24
2022/04/25 01:08:13;;;;;;;;;;;;;;;;;;5036492;28;20326;-22
2022/04/25 01:10:39;;;;;;;;;;;;;;;;;;5036233;28;19909;-23
2022/04/25 01:13:05;;;;;;;;;;;;;;;;;;5036319;28;19943;-23
2022/04/25 01:15:31;;;;;;;;;;;;;;;;;;5018697;28;19909;-22
2022/04/25 01:17:57;;;;;;;;;;;;;;;;;;5036051;28;19924;-22
2022/04/25 01:20:23;;;;;;;;;;;;;;;;;;5036300;28;19909;-25
2022/04/25 01:22:49;;;;;;;;;;;;;;;;;;5035947;28;19913;-22
2022/04/25 01:28:01;;;;;;;;;;;;;;;;;;5035989;28;19924;-23
2022/04/25 01:30:28;;;;;;;;;;;;;;;;;;5036094;28;20299;-28
2022/04/25 01:32:54;;;;;;;;;;;;;;;;;;5036320;28;20256;-22
2022/04/25 01:35:20;;;;;;;;;;;;;;;;;;5035768;28;19920;-23
2022/04/25 01:37:46;;;;;;;;;;;;;;;;;;5035738;28;19945;-24
2022/04/25 01:40:12;;;;;;;;;;;;;;;;;;5035946;28;19913;-24
2022/04/25 01:42:38;;;;;;;;;;;;;;;;;;5035811;28;19913;-24
2022/04/25 01:45:04;;;;;;;;;;;;;;;;;;5035475;28;20311;-22
2022/04/25 01:47:30;;;;;;;;;;;;;;;;;;5035547;28;19913;-23
2022/04/25 01:49:56;;;;;;;;;;;;;;;;;;5035557;28;19968;-25
2022/04/25 01:52:22;;;;;;;;;;;;;;;;;;5035854;28;20352;-22
2022/04/25 01:54:48;;;;;;;;;;;;;;;;;;5035498;28;19909;-22
2022/04/25 01:57:14;;;;;;;;;;;;;;;;;;5035390;28;19913;-22
2022/04/25 01:59:40;;;;;;;;;;;;;;;;;;5035430;28;19909;-22
2022/04/25 02:02:06;;;;;;;;;;;;;;;;;;5035282;28;19919;-22
2022/04/25 02:04:32;;;;;;;;;;;;;;;;;;5035035;28;20268;-22
2022/04/25 02:06:58;;;;;;;;;;;;;;;;;;5035314;28;20367;-22
2022/04/25 02:09:24;;;;;;;;;;;;;;;;;;5035314;28;19918;-22
2022/04/25 02:11:50;;;;;;;;;;;;;;;;;;5035050;28;19913;-22
2022/04/25 02:14:16;;;;;;;;;;;;;;;;;;5035250;28;19909;-22
2022/04/25 02:16:42;;;;;;;;;;;;;;;;;;5035243;28;19913;-23
2022/04/25 02:19:07;;;;;;;;;;;;;;;;;;5035198;28;20312;-25
2022/04/25 02:21:34;;;;;;;;;;;;;;;;;;5017767;28;19913;-25
2022/04/25 02:23:59;;;;;;;;;;;;;;;;;;5035238;28;19913;-22
2022/04/25 02:26:26;;;;;;;;;;;;;;;;;;5035023;28;20336;-22
2022/04/25 02:28:54;;;;;;;;;;;;;;;;;;5035338;28;19920;-22
2022/04/25 02:31:20;;;;;;;;;;;;;;;;;;5035317;28;19920;-26
2022/04/25 02:33:46;;;;;;;;;;;;;;;;;;5035253;28;20249;-22
2022/04/25 02:36:12;;;;;;;;;;;;;;;;;;5035924;28;19940;-25
2022/04/25 02:38:38;;;;;;;;;;;;;;;;;;5039630;28;19913;-23
2022/04/25 02:41:04;;;;;;;;;;;;;;;;;;5039036;28;20358;-22
2022/04/25 02:43:31;;;;;;;;;;;;;;;;;;5039001;28;19921;-24
2022/04/25 02:45:57;;;;;;;;;;;;;;;;;;5038896;28;20370;-25
2022/04/25 02:48:23;;;;;;;;;;;;;;;;;;5039180;28;19932;-24
2022/04/25 02:50:49;;;;;;;;;;;;;;;;;;5038873;28;19909;-23
2022/04/25 02:53:15;;;;;;;;;;;;;;;;;;5038721;28;19921;-22
2022/04/25 02:55:41;;;;;;;;;;;;;;;;;;5039059;28;19916;-23
2022/04/25 02:58:08;;;;;;;;;;;;;;;;;;5038636;28;20005;-26
2022/04/25 03:00:34;;;;;;;;;;;;;;;;;;5021525;28;19920;-23
2022/04/25 03:03:00;;;;;;;;;;;;;;;;;;5038557;28;19917;-23
2022/04/25 03:05:26;;;;;;;;;;;;;;;;;;5038339;28;19971;-22
2022/04/25 03:07:52;;;;;;;;;;;;;;;;;;5038553;28;19982;-22
2022/04/25 03:10:18;;;;;;;;;;;;;;;;;;5038509;28;19909;-24
2022/04/25 03:12:44;;;;;;;;;;;;;;;;;;5038564;28;20340;-22
2022/04/25 03:15:10;;;;;;;;;;;;;;;;;;5038687;28;19913;-22
2022/04/25 03:17:38;;;;;;;;;;;;;;;;;;5038621;28;19913;-26
2022/04/25 03:20:04;;;;;;;;;;;;;;;;;;5038359;28;19941;-22
2022/04/25 03:22:30;;;;;;;;;;;;;;;;;;5038452;28;19967;-23
2022/04/25 03:24:56;;;;;;;;;;;;;;;;;;5038455;28;20336;-23
2022/04/25 03:27:22;;;;;;;;;;;;;;;;;;5038199;28;20323;-22
2022/04/25 03:29:48;;;;;;;;;;;;;;;;;;5038115;28;19909;-23
2022/04/25 03:32:14;;;;;;;;;;;;;;;;;;5038296;28;20004;-22
2022/04/25 03:34:41;;;;;;;;;;;;;;;;;;5038288;28;19962;-22
2022/04/25 03:37:08;;;;;;;;;;;;;;;;;;5037939;28;19913;-22
2022/04/25 03:39:34;;;;;;;;;;;;;;;;;;5038004;28;19909;-24
2022/04/25 03:42:01;;;;;;;;;;;;;;;;;;5037812;28;20051;-22
2022/04/25 03:44:27;;;;;;;;;;;;;;;;;;5038080;28;19909;-22
2022/04/25 03:46:53;;;;;;;;;;;;;;;;;;5038044;28;20063;-22
2022/04/25 03:49:19;;;;;;;;;;;;;;;;;;5036992;28;19941;-22
2022/04/25 03:51:45;;;;;;;;;;;;;;;;;;5020402;28;19921;-22
2022/04/25 03:54:11;;;;;;;;;;;;;;;;;;5037517;28;20291;-24
2022/04/25 03:57:10;;;;;;;;;;;;;;;;;;5037436;28;20055;-22
2022/04/25 03:59:36;;;;;;;;;;;;;;;;;;5038159;28;19921;-22
2022/04/25 04:02:02;;;;;;;;;;;;;;;;;;5037277;28;19913;-22
2022/04/25 04:04:29;;;;;;;;;;;;;;;;;;5037197;28;20268;-23
2022/04/25 04:06:55;;;;;;;;;;;;;;;;;;5037449;28;19940;-27
2022/04/25 04:12:05;;;;;;;;;;;;;;;;;;5037499;28;19967;-23
2022/04/25 04:14:31;;;;;;;;;;;;;;;;;;5037098;28;19913;-23
2022/04/25 04:16:58;;;;;;;;;;;;;;;;;;5037299;28;19971;-23
2022/04/25 04:19:25;;;;;;;;;;;;;;;;;;5037116;28;19963;-22
2022/04/25 04:21:52;;;;;;;;;;;;;;;;;;5019494;28;19913;-23
2022/04/25 04:24:18;;;;;;;;;;;;;;;;;;5036886;28;19909;-23
2022/04/25 04:26:44;;;;;;;;;;;;;;;;;;5037210;28;19920;-22
2022/04/25 04:29:11;;;;;;;;;;;;;;;;;;5036749;28;19913;-26
2022/04/25 04:31:37;;;;;;;;;;;;;;;;;;5036849;28;19909;-22
2022/04/25 04:34:03;;;;;;;;;;;;;;;;;;5036978;28;19932;-22
2022/04/25 04:36:31;;;;;;;;;;;;;;;;;;5036938;28;19920;-22
2022/04/25 04:38:57;;;;;;;;;;;;;;;;;;5036552;28;19949;-24
2022/04/25 04:41:23;;;;;;;;;;;;;;;;;;5036680;28;19995;-22
2022/04/25 04:43:49;;;;;;;;;;;;;;;;;;5019138;28;19924;-22
2022/04/25 04:46:15;;;;;;;;;;;;;;;;;;5036633;28;19924;-23
2022/04/25 04:48:41;;;;;;;;;;;;;;;;;;5019050;28;20353;-26
2022/04/25 04:51:08;;;;;;;;;;;;;;;;;;5036387;28;19920;-24
2022/04/25 04:53:34;;;;;;;;;;;;;;;;;;5036336;28;19909;-22
2022/04/25 04:56:00;;;;;;;;;;;;;;;;;;5036883;28;20028;-22
2022/04/25 04:58:27;;;;;;;;;;;;;;;;;;5036359;28;19913;-27
2022/04/25 05:00:53;;;;;;;;;;;;;;;;;;5036068;28;19996;-24
2022/04/25 05:03:20;;;;;;;;;;;;;;;;;;5018713;28;19998;-22
2022/04/25 05:05:46;;;;;;;;;;;;;;;;;;5035783;28;19936;-22
2022/04/25 05:08:12;;;;;;;;;;;;;;;;;;5036162;28;19913;-24
2022/04/25 05:10:37;;;;;;;;;;;;;;;;;;5035969;28;19971;-22
2022/04/25 05:13:03;;;;;;;;;;;;;;;;;;5036112;28;19940;-22
2022/04/25 05:15:29;;;;;;;;;;;;;;;;;;5036018;28;19913;-24
2022/04/25 05:17:55;;;;;;;;;;;;;;;;;;5035813;28;20036;-25
2022/04/25 05:20:22;;;;;;;;;;;;;;;;;;5036426;28;19916;-23
2022/04/25 05:22:48;;;;;;;;;;;;;;;;;;5036011;28;20409;-22
2022/04/25 05:25:14;;;;;;;;;;;;;;;;;;5035642;28;19917;-23
2022/04/25 05:27:40;;;;;;;;;;;;;;;;;;5036040;28;19913;-22
2022/04/25 05:30:06;;;;;;;;;;;;;;;;;;5035960;28;19920;-23
2022/04/25 05:32:32;;;;;;;;;;;;;;;;;;5035548;28;19996;-26
2022/04/25 05:34:58;;;;;;;;;;;;;;;;;;5035565;28;19952;-23
2022/04/25 05:37:24;;;;;;;;;;;;;;;;;;5035605;28;19963;-22
2022/04/25 05:39:50;;;;;;;;;;;;;;;;;;5035733;28;20291;-25
2022/04/25 05:42:16;;;;;;;;;;;;;;;;;;5035383;28;20248;-22
2022/04/25 05:44:42;;;;;;;;;;;;;;;;;;5035349;28;19910;-23
2022/04/25 05:47:08;;;;;;;;;;;;;;;;;;5035892;28;20004;-23
2022/04/25 05:52:19;;;;;;;;;;;;;;;;;;5035449;28;19924;-21
2022/04/25 05:54:46;;;;;;;;;;;;;;;;;;5035480;28;19917;-25
2022/04/25 05:57:12;;;;;;;;;;;;;;;;;;5035053;28;19909;-23
2022/04/25 05:59:38;;;;;;;;;;;;;;;;;;5035028;28;19949;-22
2022/04/25 06:02:04;;;;;;;;;;;;;;;;;;5497725;22;19951;-26
2022/04/25 06:04:30;;;;;;;;;;;;;;;;;;5034943;28;20348;-27
2022/04/25 06:06:57;;;;;;;;;;;;;;;;;;5035092;28;19959;-27
2022/04/25 06:09:26;;;;;;;;;;;;;;;;;;5034894;28;19909;-26
2022/04/25 06:11:52;;;;;;;;;;;;;;;;;;5034565;28;19913;-26
2022/04/25 06:14:18;;;;;;;;;;;;;;;;;;5035812;28;19928;-26
2022/04/25 06:16:44;;;;;;;;;;;;;;;;;;5034846;28;20255;-26
2022/04/25 06:19:10;;;;;;;;;;;;;;;;;;5035035;28;19913;-26
2022/04/25 06:21:36;;;;;;;;;;;;;;;;;;5035112;28;20244;-26
2022/04/25 06:24:03;;;;;;;;;;;;;;;;;;5034997;28;19921;-26
2022/04/25 06:26:30;;;;;;;;;;;;;;;;;;5034641;28;19913;-27
2022/04/25 06:28:56;;;;;;;;;;;;;;;;;;5034951;28;19913;-27
2022/04/25 06:31:23;;;;;;;;;;;;;;;;;;5035143;28;20271;-27
2022/04/25 06:33:49;;;;;;;;;;;;;;;;;;5035013;28;20000;-27
2022/04/25 06:36:15;;;;;;;;;;;;;;;;;;5035336;28;20389;-27
2022/04/25 06:38:41;;;;;;;;;;;;;;;;;;5034729;28;19917;-27
2022/04/25 06:41:07;;;;;;;;;;;;;;;;;;5035254;28;20393;-27
2022/04/25 06:43:33;;;;;;;;;;;;;;;;;;5034800;28;19912;-27
2022/04/25 06:45:59;;;;;;;;;;;;;;;;;;5034612;28;20255;-27
2022/04/25 06:48:25;;;;;;;;;;;;;;;;;;5034646;28;19924;-27
2022/04/25 06:50:51;;;;;;;;;;;;;;;;;;5034877;28;20336;-27
2022/04/25 06:53:17;;;;;;;;;;;;;;;;;;5034694;28;19999;-27
2022/04/25 06:55:43;;;;;;;;;;;;;;;;;;5017102;28;20355;-27
2022/04/25 06:58:09;;;;;;;;;;;;;;;;;;5034558;28;19909;-27
2022/04/25 07:00:35;;;;;;;;;;;;;;;;;;5034605;28;20351;-27
2022/04/25 07:03:01;;;;;;;;;;;;;;;;;;5034205;28;19921;-27
2022/04/25 07:05:27;;;;;;;;;;;;;;;;;;5034443;28;19936;-27
2022/04/25 07:07:53;;;;;;;;;;;;;;;;;;5034723;28;20294;-27
2022/04/25 07:10:18;;;;;;;;;;;;;;;;;;5034754;28;19996;-27
2022/04/25 07:12:45;;;;;;;;;;;;;;;;;;5034939;28;19975;-27
2022/04/25 07:15:11;;;;;;;;;;;;;;;;;;5034345;28;19924;-27
2022/04/25 07:17:37;;;;;;;;;;;;;;;;;;5034312;28;20352;-27
2022/04/25 07:20:03;;;;;;;;;;;;;;;;;;5034202;28;19928;-26
2022/04/25 07:30:43;;;;;;;;;;;;;;;;;;5038178;28;20302;-26
2022/04/25 07:33:09;;;;;;;;;;;;;;;;;;5037692;28;20016;-26
2022/04/25 07:35:36;;;;;;;;;;;;;;;;;;5038031;28;20014;-26
2022/04/25 07:38:02;;;;;;;;;;;;;;;;;;5037969;28;19917;-26
2022/04/25 07:40:29;;;;;;;;;;;;;;;;;;5037743;28;19909;-26
2022/04/25 07:42:55;;;;;;;;;;;;;;;;;;5037544;28;19917;-26
2022/04/25 07:45:21;;;;;;;;;;;;;;;;;;5037554;28;20016;-26
2022/04/25 07:47:47;;;;;;;;;;;;;;;;;;5037644;28;19940;-26
2022/04/25 07:50:14;;;;;;;;;;;;;;;;;;5037797;28;19979;-26
2022/04/25 07:52:40;;;;;;;;;;;;;;;;;;5037648;28;20003;-26
2022/04/25 07:55:09;;;;;;;;;;;;;;;;;;5037375;28;19923;-26
2022/04/25 07:57:35;;;;;;;;;;;;;;;;;;5037446;28;20389;-26
2022/04/25 08:00:01;;;;;;;;;;;;;;;;;;5037657;28;19948;-26
2022/04/25 08:02:28;;;;;;;;;;;;;;;;;;5037168;28;20232;-26
2022/04/25 08:04:54;;;;;;;;;;;;;;;;;;5037548;28;19909;-27
2022/04/25 08:07:20;;;;;;;;;;;;;;;;;;5037185;28;19935;-26
2022/04/25 08:09:46;;;;;;;;;;;;;;;;;;5037458;28;19909;-26
2022/04/25 08:17:58;;;;;;;;;;;;;;;;;;5037083;28;19979;-26
2022/04/25 08:20:25;;;;;;;;;;;;;;;;;;5037345;28;20004;-26
2022/04/25 08:22:51;;;;;;;;;;;;;;;;;;5036808;28;19917;-26
2022/04/25 08:25:17;;;;;;;;;;;;;;;;;;5037126;28;19923;-26
2022/04/25 08:27:43;;;;;;;;;;;;;;;;;;5037321;28;19913;-26
2022/04/25 08:30:11;;;;;;;;;;;;;;;;;;5036792;28;20362;-26
2022/04/25 08:32:37;;;;;;;;;;;;;;;;;;5036936;28;19913;-27
2022/04/25 08:35:03;;;;;;;;;;;;;;;;;;5036203;28;20343;-26
2022/04/25 08:37:29;;;;;;;;;;;;;;;;;;5037266;28;20302;-26
2022/04/25 08:39:55;;;;;;;;;;;;;;;;;;5037219;28;19919;-26
2022/04/25 08:42:22;;;;;;;;;;;;;;;;;;5037059;28;19952;-26
2022/04/25 08:44:48;;;;;;;;;;;;;;;;;;5036507;28;19909;-26
2022/04/25 08:47:14;;;;;;;;;;;;;;;;;;5036453;28;19963;-26
2022/04/25 08:49:40;;;;;;;;;;;;;;;;;;5019076;28;19909;-26
2022/04/25 08:52:06;;;;;;;;;;;;;;;;;;5036817;28;19920;-26
2022/04/25 08:54:32;;;;;;;;;;;;;;;;;;5036570;28;19924;-26
2022/04/25 08:56:58;;;;;;;;;;;;;;;;;;5036541;28;19934;-26
2022/04/25 08:59:24;;;;;;;;;;;;;;;;;;5036596;28;19972;-26
2022/04/25 09:01:50;;;;;;;;;;;;;;;;;;5036153;28;19920;-26
2022/04/25 09:04:16;;;;;;;;;;;;;;;;;;5035917;28;19917;-26
2022/04/25 09:06:42;;;;;;;;;;;;;;;;;;5036059;28;19925;-26
2022/04/25 09:09:08;;;;;;;;;;;;;;;;;;5036055;28;20255;-26
2022/04/25 09:14:19;;;;;;;;;;;;;;;;;;5036104;28;20055;-27
2022/04/25 09:16:46;;;;;;;;;;;;;;;;;;5018655;28;21252;-26
2022/04/25 09:19:12;;;;;;;;;;;;;;;;;;5035794;28;19927;-26
2022/04/25 09:21:38;;;;;;;;;;;;;;;;;;5035792;28;19922;-26
2022/04/25 09:24:04;;;;;;;;;;;;;;;;;;5035620;28;19913;-26
2022/04/25 09:26:31;;;;;;;;;;;;;;;;;;5036148;28;19913;-26
2022/04/25 09:28:57;;;;;;;;;;;;;;;;;;5035533;28;19913;-26
2022/04/25 09:31:25;;;;;;;;;;;;;;;;;;5035846;28;19913;-26
2022/04/25 09:33:51;;;;;;;;;;;;;;;;;;5035804;28;19913;-26
2022/04/25 09:36:17;;;;;;;;;;;;;;;;;;5035565;28;19913;-26
2022/04/25 09:38:43;;;;;;;;;;;;;;;;;;5035490;28;19939;-27
2022/04/25 09:41:09;;;;;;;;;;;;;;;;;;5018095;28;20340;-27
2022/04/25 09:43:34;;;;;;;;;;;;;;;;;;5035975;28;19910;-26
2022/04/25 09:46:00;;;;;;;;;;;;;;;;;;5034601;28;19990;-26
2022/04/25 09:48:26;;;;;;;;;;;;;;;;;;5035462;28;19913;-26
2022/04/25 09:50:52;;;;;;;;;;;;;;;;;;5035363;28;20347;-26
2022/04/25 09:53:19;;;;;;;;;;;;;;;;;;5035444;28;19920;-26
2022/04/25 09:55:45;;;;;;;;;;;;;;;;;;5035292;28;19927;-26
2022/04/25 09:58:11;;;;;;;;;;;;;;;;;;5035321;28;19943;-26
2022/04/25 10:00:38;;;;;;;;;;;;;;;;;;5035267;28;20326;-26
2022/04/25 10:03:04;;;;;;;;;;;;;;;;;;5035038;28;19983;-26
2022/04/25 10:05:30;;;;;;;;;;;;;;;;;;5035131;28;20352;-26
2022/04/25 10:07:56;;;;;;;;;;;;;;;;;;5035569;28;19913;-26
2022/04/25 10:10:22;;;;;;;;;;;;;;;;;;5035283;28;19913;-26
2022/04/25 10:12:47;;;;;;;;;;;;;;;;;;5034968;28;19913;-26
2022/04/25 10:15:13;;;;;;;;;;;;;;;;;;5035230;28;19909;-26
2022/04/25 10:17:40;;;;;;;;;;;;;;;;;;5035200;28;20473;-26
2022/04/25 10:20:06;;;;;;;;;;;;;;;;;;5035976;28;19909;-26
2022/04/25 10:22:32;;;;;;;;;;;;;;;;;;5034838;28;20074;-26
2022/04/25 10:24:58;;;;;;;;;;;;;;;;;;5034784;28;19945;-26
2022/04/25 10:27:27;;;;;;;;;;;;;;;;;;5035041;28;19936;-26
2022/04/25 10:29:53;;;;;;;;;;;;;;;;;;5034809;28;19917;-26
2022/04/25 10:32:19;;;;;;;;;;;;;;;;;;5035048;28;19967;-26
2022/04/25 10:34:45;;;;;;;;;;;;;;;;;;5035253;28;19916;-26
2022/04/25 10:37:11;;;;;;;;;;;;;;;;;;5034699;28;19921;-27
2022/04/25 10:39:37;;;;;;;;;;;;;;;;;;5035275;28;19971;-26
2022/04/25 10:44:48;;;;;;;;;;;;;;;;;;5034543;28;19927;-26
2022/04/25 10:47:15;;;;;;;;;;;;;;;;;;5034604;28;20004;-26
2022/04/25 10:49:42;;;;;;;;;;;;;;;;;;5034768;28;19971;-26
2022/04/25 10:52:09;;;;;;;;;;;;;;;;;;5034626;28;19913;-26
2022/04/25 10:54:36;;;;;;;;;;;;;;;;;;5034472;28;19909;-26
2022/04/25 10:57:02;;;;;;;;;;;;;;;;;;5035301;28;20003;-26
2022/04/25 10:59:28;;;;;;;;;;;;;;;;;;5038399;28;20387;-26
2022/04/25 11:01:56;;;;;;;;;;;;;;;;;;5038584;28;19978;-26
2022/04/25 11:04:23;;;;;;;;;;;;;;;;;;5038235;28;20263;-26
2022/04/25 11:06:49;;;;;;;;;;;;;;;;;;5038557;28;19964;-26
2022/04/25 11:09:14;;;;;;;;;;;;;;;;;;5038589;28;19932;-26
2022/04/25 11:11:40;;;;;;;;;;;;;;;;;;5038486;28;20291;-26
2022/04/25 11:14:07;;;;;;;;;;;;;;;;;;5038163;28;19917;-26
2022/04/25 11:16:33;;;;;;;;;;;;;;;;;;5038338;28;19913;-26
2022/04/25 11:18:59;;;;;;;;;;;;;;;;;;5038048;28;19913;-26
2022/04/25 11:21:25;;;;;;;;;;;;;;;;;;5038133;28;19963;-26
2022/04/25 11:23:51;;;;;;;;;;;;;;;;;;5038160;28;19975;-26
2022/04/25 11:26:17;;;;;;;;;;;;;;;;;;5038350;28;20328;-26
2022/04/25 11:28:43;;;;;;;;;;;;;;;;;;5038150;28;19924;-26
2022/04/25 11:31:10;;;;;;;;;;;;;;;;;;5038483;28;19917;-26
2022/04/25 11:33:36;;;;;;;;;;;;;;;;;;5038815;28;20021;-26
2022/04/25 11:36:01;;;;;;;;;;;;;;;;;;5037715;28;19940;-26
2022/04/25 11:39:50;;;;;;;;;;;;;;;;;;5037908;28;19913;-27
2022/04/25 11:41:13;;;;;;;;;;;;;;;;;;5037575;28;19966;-26
2022/04/25 11:43:41;;;;;;;;;;;;;;;;;;5037671;28;20316;-27
2022/04/25 11:46:07;;;;;;;;;;;;;;;;;;5038705;28;19953;-27
2022/04/25 11:48:33;;;;;;;;;;;;;;;;;;5037676;28;20395;-27
2022/04/25 11:50:59;;;;;;;;;;;;;;;;;;5037840;28;19949;-27
2022/04/25 11:53:25;;;;;;;;;;;;;;;;;;5037592;28;19913;-27
2022/04/25 11:55:51;;;;;;;;;;;;;;;;;;5037547;28;20016;-27
2022/04/25 11:58:17;;;;;;;;;;;;;;;;;;5037726;28;19913;-27
2022/04/25 12:00:43;;;;;;;;;;;;;;;;;;5037627;28;20332;-27
2022/04/25 12:03:09;;;;;;;;;;;;;;;;;;5037240;28;20276;-27
2022/04/25 12:05:35;;;;;;;;;;;;;;;;;;5037127;28;19920;-27
2022/04/25 12:16:18;;;;;;;;;;;;;;;;;;5037055;28;19915;-27
2022/04/25 12:18:44;;;;;;;;;;;;;;;;;;5019449;28;20394;-27
2022/04/25 12:21:11;;;;;;;;;;;;;;;;;;5036936;28;19975;-27
2022/04/25 12:23:39;;;;;;;;;;;;;;;;;;5036821;28;19959;-27
2022/04/25 12:26:06;;;;;;;;;;;;;;;;;;5036796;28;19979;-27
2022/04/25 12:28:32;;;;;;;;;;;;;;;;;;5037136;28;20326;-27
2022/04/25 12:30:58;;;;;;;;;;;;;;;;;;5019430;28;20337;-28
2022/04/25 12:33:24;;;;;;;;;;;;;;;;;;5036856;28;19913;-27
2022/04/25 12:35:51;;;;;;;;;;;;;;;;;;5037147;28;19909;-27
2022/04/25 12:38:17;;;;;;;;;;;;;;;;;;5037017;28;20363;-27
2022/04/25 12:40:43;;;;;;;;;;;;;;;;;;5036925;28;19913;-27
2022/04/25 12:43:09;;;;;;;;;;;;;;;;;;5036592;28;19913;-27
2022/04/25 12:45:35;;;;;;;;;;;;;;;;;;5036949;28;20074;-27
2022/04/25 12:48:01;;;;;;;;;;;;;;;;;;5036449;28;20000;-27
2022/04/25 12:50:27;;;;;;;;;;;;;;;;;;5036465;28;20348;-27
2022/04/25 12:52:53;;;;;;;;;;;;;;;;;;5036368;28;19924;-27
2022/04/25 12:55:19;;;;;;;;;;;;;;;;;;5036306;28;19971;-27
2022/04/25 12:57:45;;;;;;;;;;;;;;;;;;5036931;28;19913;-27
2022/04/25 13:00:11;;;;;;;;;;;;;;;;;;5036280;28;19909;-27
2022/04/25 13:02:37;;;;;;;;;;;;;;;;;;5036244;28;19924;-27
2022/04/25 13:05:03;;;;;;;;;;;;;;;;;;5036074;28;19996;-27
2022/04/25 13:07:30;;;;;;;;;;;;;;;;;;5036143;28;20302;-27
2022/04/25 13:09:56;;;;;;;;;;;;;;;;;;5036034;28;20287;-27
2022/04/25 13:12:23;;;;;;;;;;;;;;;;;;5036142;28;20016;-27
2022/04/25 13:14:49;;;;;;;;;;;;;;;;;;5036291;28;19932;-27
2022/04/25 13:17:15;;;;;;;;;;;;;;;;;;5035917;28;20259;-27
2022/04/25 13:19:41;;;;;;;;;;;;;;;;;;5035920;28;19909;-26
2022/04/25 13:22:07;;;;;;;;;;;;;;;;;;5035889;28;20314;-26
2022/04/25 13:24:33;;;;;;;;;;;;;;;;;;5036316;28;19913;-26
2022/04/25 13:26:59;;;;;;;;;;;;;;;;;;5035767;28;20336;-27
2022/04/25 13:29:25;;;;;;;;;;;;;;;;;;5035687;28;19910;-26
2022/04/25 13:31:51;;;;;;;;;;;;;;;;;;5035722;28;20004;-26
2022/04/25 13:34:16;;;;;;;;;;;;;;;;;;5036220;28;20331;-26
2022/04/25 13:36:42;;;;;;;;;;;;;;;;;;5036146;28;19914;-26
2022/04/25 13:39:08;;;;;;;;;;;;;;;;;;5035852;28;20015;-26
2022/04/25 13:41:34;;;;;;;;;;;;;;;;;;5035652;28;19963;-27
2022/04/25 13:44:04;;;;;;;;;;;;;;;;;;5035437;28;20344;-26
2022/04/25 13:46:31;;;;;;;;;;;;;;;;;;5035642;28;19917;-26
2022/04/25 13:48:57;;;;;;;;;;;;;;;;;;5035370;28;19913;-26
2022/04/25 13:51:23;;;;;;;;;;;;;;;;;;5035449;28;19928;-26
2022/04/25 13:53:49;;;;;;;;;;;;;;;;;;5035356;28;19920;-26
2022/04/25 13:56:15;;;;;;;;;;;;;;;;;;5035611;28;19984;-26
2022/04/25 13:58:41;;;;;;;;;;;;;;;;;;5017944;28;19909;-26
2022/04/25 14:01:07;;;;;;;;;;;;;;;;;;5035340;28;20000;-28
2022/04/25 14:03:33;;;;;;;;;;;;;;;;;;5035127;28;19971;-26
2022/04/25 14:05:59;;;;;;;;;;;;;;;;;;5035183;28;19913;-26
2022/04/25 14:08:26;;;;;;;;;;;;;;;;;;5035230;28;19921;-26
2022/04/25 14:10:52;;;;;;;;;;;;;;;;;;5035139;28;19960;-26
2022/04/25 14:13:19;;;;;;;;;;;;;;;;;;5035215;28;19913;-27
2022/04/25 14:15:45;;;;;;;;;;;;;;;;;;5035279;28;19913;-26
2022/04/25 14:18:11;;;;;;;;;;;;;;;;;;5035013;28;19913;-26
2022/04/25 14:20:37;;;;;;;;;;;;;;;;;;5035015;28;20336;-26
2022/04/25 14:23:03;;;;;;;;;;;;;;;;;;5035145;28;19913;-26
2022/04/25 14:25:29;;;;;;;;;;;;;;;;;;5017355;28;19914;-26
2022/04/25 14:27:55;;;;;;;;;;;;;;;;;;5034898;28;20005;-26
2022/04/25 14:30:22;;;;;;;;;;;;;;;;;;5034920;28;19910;-26
2022/04/25 14:32:48;;;;;;;;;;;;;;;;;;5021297;28;20012;-26
2022/04/25 14:35:14;;;;;;;;;;;;;;;;;;5041744;28;20003;-26
2022/04/25 14:37:40;;;;;;;;;;;;;;;;;;5042051;28;19920;-26
2022/04/25 14:40:06;;;;;;;;;;;;;;;;;;5041512;28;19960;-26
2022/04/25 14:42:32;;;;;;;;;;;;;;;;;;5041355;28;19916;-27
2022/04/25 14:44:58;;;;;;;;;;;;;;;;;;5041678;28;19971;-26
2022/04/25 14:47:24;;;;;;;;;;;;;;;;;;5041486;28;20291;-26
2022/04/25 14:55:21;;;;;;;;;;;;;;;;;;5041647;28;19920;-26
2022/04/25 14:57:50;;;;;;;;;;;;;;;;;;5041274;28;19932;-26
2022/04/25 15:00:16;;;;;;;;;;;;;;;;;;5041183;28;19967;-26
2022/04/25 15:02:42;;;;;;;;;;;;;;;;;;5041345;28;20062;-26
2022/04/25 15:05:08;;;;;;;;;;;;;;;;;;5041650;28;19913;-26
2022/04/25 15:07:34;;;;;;;;;;;;;;;;;;5041521;28;20397;-26
2022/04/25 15:10:00;;;;;;;;;;;;;;;;;;5041354;28;20347;-27
2022/04/25 15:12:26;;;;;;;;;;;;;;;;;;5041449;28;19923;-27
2022/04/25 15:14:52;;;;;;;;;;;;;;;;;;5041325;28;20407;-27
2022/04/25 15:17:18;;;;;;;;;;;;;;;;;;5041145;28;19983;-27
2022/04/25 15:19:44;;;;;;;;;;;;;;;;;;5041138;28;19945;-27
2022/04/25 15:22:10;;;;;;;;;;;;;;;;;;5041383;28;19932;-27
2022/04/25 15:24:36;;;;;;;;;;;;;;;;;;5041171;28;19908;-27
2022/04/25 15:27:03;;;;;;;;;;;;;;;;;;5041006;28;19921;-27
2022/04/25 15:29:28;;;;;;;;;;;;;;;;;;5040974;28;19909;-27
2022/04/25 15:31:55;;;;;;;;;;;;;;;;;;5041250;28;19924;-27
2022/04/25 15:34:21;;;;;;;;;;;;;;;;;;5041621;28;19967;-27
2022/04/25 15:36:46;;;;;;;;;;;;;;;;;;5041620;28;19914;-27
2022/04/25 15:39:12;;;;;;;;;;;;;;;;;;5040967;28;20348;-27
2022/04/25 15:41:40;;;;;;;;;;;;;;;;;;5041073;28;19909;-27
2022/04/25 15:44:06;;;;;;;;;;;;;;;;;;5038026;28;19913;-27
2022/04/25 15:46:32;;;;;;;;;;;;;;;;;;5037751;28;19924;-27
2022/04/25 15:48:58;;;;;;;;;;;;;;;;;;5037798;28;19913;-27
2022/04/25 15:51:24;;;;;;;;;;;;;;;;;;5037834;28;20263;-27
2022/04/25 15:59:19;;;;;;;;;;;;;;;;;;5037930;28;19921;-28
2022/04/25 16:01:45;;;;;;;;;;;;;;;;;;5019966;28;20352;-27
2022/04/25 16:04:11;;;;;;;;;;;;;;;;;;5037265;28;20016;-27
2022/04/25 16:06:37;;;;;;;;;;;;;;;;;;5037422;28;20007;-27
2022/04/25 16:09:03;;;;;;;;;;;;;;;;;;5019901;28;20332;-27
2022/04/25 16:11:29;;;;;;;;;;;;;;;;;;5037337;28;19909;-27
2022/04/25 16:13:55;;;;;;;;;;;;;;;;;;5037242;28;19913;-27
2022/04/25 16:16:21;;;;;;;;;;;;;;;;;;5037207;28;19923;-27
2022/04/25 16:18:47;;;;;;;;;;;;;;;;;;5037127;28;19917;-27
2022/04/25 16:21:13;;;;;;;;;;;;;;;;;;5037469;28;19920;-27
2022/04/25 16:23:39;;;;;;;;;;;;;;;;;;5037338;28;20255;-27
2022/04/25 16:26:05;;;;;;;;;;;;;;;;;;5037046;28;19939;-27
2022/04/25 16:28:31;;;;;;;;;;;;;;;;;;5037877;28;19966;-27
2022/04/25 16:30:58;;;;;;;;;;;;;;;;;;5037049;28;20039;-27
2022/04/25 16:33:24;;;;;;;;;;;;;;;;;;5036852;28;20051;-27
2022/04/25 16:35:50;;;;;;;;;;;;;;;;;;5037210;28;19941;-27
2022/04/25 16:38:16;;;;;;;;;;;;;;;;;;5037069;28;19913;-27
2022/04/25 16:40:42;;;;;;;;;;;;;;;;;;5036764;28;19992;-27
2022/04/25 16:43:09;;;;;;;;;;;;;;;;;;5036695;28;19917;-27
2022/04/25 16:45:35;;;;;;;;;;;;;;;;;;5036556;28;19921;-27
2022/04/25 16:48:01;;;;;;;;;;;;;;;;;;5036944;28;20020;-27
2022/04/25 16:50:27;;;;;;;;;;;;;;;;;;5019236;28;19944;-27
2022/04/25 16:52:57;;;;;;;;;;;;;;;;;;5036800;28;19924;-27
2022/04/25 16:55:23;;;;;;;;;;;;;;;;;;5036172;28;19932;-26
2022/04/25 16:57:49;;;;;;;;;;;;;;;;;;5036422;28;19913;-27
2022/04/25 17:00:15;;;;;;;;;;;;;;;;;;5036806;28;19959;-26
2022/04/25 17:02:41;;;;;;;;;;;;;;;;;;5036119;28;19928;-26
2022/04/25 17:05:07;;;;;;;;;;;;;;;;;;5036513;28;19909;-26
2022/04/25 17:07:33;;;;;;;;;;;;;;;;;;5036185;28;19913;-26
2022/04/25 17:09:59;;;;;;;;;;;;;;;;;;5036632;28;19909;-26
2022/04/25 17:12:25;;;;;;;;;;;;;;;;;;5036406;28;19999;-26
2022/04/25 17:14:51;;;;;;;;;;;;;;;;;;5036255;28;19963;-26
2022/04/25 17:17:18;;;;;;;;;;;;;;;;;;5036735;28;19917;-26
2022/04/25 17:19:44;;;;;;;;;;;;;;;;;;5036042;28;19913;-27
2022/04/25 17:22:10;;;;;;;;;;;;;;;;;;5035953;28;19967;-26
2022/04/25 17:24:36;;;;;;;;;;;;;;;;;;5036004;28;19913;-27